Time;durP1;ratioP1;P1;durP2;ratioP2;P2;SDS_P1;SDS_P2;PMS_P1;PMS_P2;Temp;Humidity;BMP_temperature;BMP_pressure;BME280_temperature;BME280_humidity;BME280_pressure;Samples;Min_cycle;Max_cycle;Signal;HPM_P1;HPM_P2
2021/07/29 00:01:19;;;;;;;2.70;2.07;;;18.00;99.90;;;;;;5073668;28;20486;-73
2021/07/29 00:03:47;;;;;;;11.73;2.77;;;18.00;99.90;;;;;;5066991;28;20646;-72
2021/07/29 00:06:15;;;;;;;3.60;1.90;;;18.10;99.90;;;;;;5070473;28;21239;-71
2021/07/29 00:08:42;;;;;;;4.93;2.53;;;18.00;99.90;;;;;;5070839;28;20656;-72
2021/07/29 00:11:10;;;;;;;2.50;1.60;;;17.90;99.90;;;;;;5067602;28;20467;-75
2021/07/29 00:13:38;;;;;;;2.10;1.70;;;17.90;99.90;;;;;;5074934;28;20477;-71
2021/07/29 00:16:05;;;;;;;3.67;2.27;;;17.80;99.90;;;;;;5072642;28;20545;-71
2021/07/29 00:21:19;;;;;;;2.40;1.77;;;17.60;99.90;;;;;;5078720;28;20490;-71
2021/07/29 00:23:49;;;;;;;4.17;2.57;;;17.60;99.90;;;;;;5066757;28;20946;-72
2021/07/29 00:26:16;;;;;;;3.47;2.30;;;17.60;99.90;;;;;;5076854;28;20446;-75
2021/07/29 00:28:43;;;;;;;3.07;2.30;;;17.60;99.90;;;;;;5078500;28;20469;-72
2021/07/29 00:31:10;;;;;;;2.73;1.73;;;17.60;99.90;;;;;;5069529;28;20542;-70
2021/07/29 00:33:37;;;;;;;2.50;1.73;;;17.50;99.90;;;;;;5072425;28;20580;-74
2021/07/29 00:36:04;;;;;;;2.90;1.70;;;17.50;99.90;;;;;;5072443;28;20454;-71
2021/07/29 00:38:33;;;;;;;2.90;2.30;;;17.50;99.90;;;;;;5073520;28;20521;-70
2021/07/29 00:41:00;;;;;;;4.47;2.47;;;17.40;99.90;;;;;;5072291;28;20453;-71
2021/07/29 00:43:27;;;;;;;5.60;2.53;;;17.50;99.90;;;;;;5074996;28;20560;-73
2021/07/29 00:45:56;;;;;;;4.00;2.27;;;17.50;99.90;;;;;;5080049;28;20540;-71
2021/07/29 00:48:23;;;;;;;3.40;2.00;;;17.40;99.90;;;;;;5064296;28;20568;-72
2021/07/29 00:50:51;;;;;;;3.23;2.23;;;17.30;99.90;;;;;;5079200;28;20896;-72
2021/07/29 00:53:17;;;;;;;2.90;2.33;;;17.40;99.90;;;;;;5070569;28;20848;-73
2021/07/29 00:55:46;;;;;;;3.23;2.40;;;17.30;99.90;;;;;;5072265;28;20976;-72
2021/07/29 00:58:13;;;;;;;2.63;2.00;;;17.20;99.90;;;;;;5070200;28;20478;-74
2021/07/29 01:00:40;;;;;;;2.97;2.37;;;17.20;99.90;;;;;;5063438;28;20887;-73
2021/07/29 01:03:07;;;;;;;5.10;2.97;;;17.20;99.90;;;;;;5035458;28;1127345;-74
2021/07/29 01:05:34;;;;;;;3.70;2.30;;;17.30;99.90;;;;;;5079495;28;20232;-72
2021/07/29 01:08:01;;;;;;;3.50;2.33;;;17.40;99.90;;;;;;5075235;28;20549;-72
2021/07/29 01:10:28;;;;;;;4.00;3.30;;;17.40;99.90;;;;;;5068909;28;20511;-72
2021/07/29 01:12:56;;;;;;;3.67;2.20;;;17.30;99.90;;;;;;5077749;28;20458;-71
2021/07/29 01:15:23;;;;;;;3.30;2.30;;;17.40;99.90;;;;;;5077325;28;20449;-74
2021/07/29 01:17:50;;;;;;;3.97;2.97;;;17.40;99.90;;;;;;5069256;28;20447;-73
2021/07/29 01:20:23;;;;;;;3.90;3.30;;;17.30;99.90;;;;;;5077657;28;20472;-72
2021/07/29 01:22:50;;;;;;;2.27;1.87;;;17.30;99.90;;;;;;5076468;28;20434;-74
2021/07/29 01:25:17;;;;;;;2.43;2.10;;;17.30;99.90;;;;;;5072455;28;20500;-74
2021/07/29 01:27:44;;;;;;;3.80;1.77;;;17.20;99.90;;;;;;5078141;28;20852;-74
2021/07/29 01:30:12;;;;;;;1.73;1.47;;;17.10;99.90;;;;;;5073457;28;20458;-72
2021/07/29 01:32:40;;;;;;;5.37;2.00;;;17.20;99.90;;;;;;5074442;28;20545;-72
2021/07/29 01:35:09;;;;;;;3.20;2.03;;;17.20;99.90;;;;;;5075212;28;20474;-73
2021/07/29 01:37:39;;;;;;;2.47;1.97;;;17.20;99.90;;;;;;5072076;28;20442;-72
2021/07/29 01:40:07;;;;;;;4.73;2.70;;;17.20;99.90;;;;;;5075959;28;20540;-72
2021/07/29 01:42:34;;;;;;;2.87;2.37;;;17.20;99.90;;;;;;5075696;28;20489;-72
2021/07/29 01:45:01;;;;;;;3.00;2.10;;;17.20;99.90;;;;;;5076149;28;20557;-71
2021/07/29 01:47:28;;;;;;;2.90;1.73;;;17.20;99.90;;;;;;5075265;28;20533;-72
2021/07/29 01:49:56;;;;;;;3.90;2.60;;;17.10;99.90;;;;;;5074913;28;20478;-72
2021/07/29 01:52:23;;;;;;;2.10;1.70;;;17.00;99.90;;;;;;5069595;28;20478;-72
2021/07/29 01:54:51;;;;;;;3.57;2.17;;;16.90;99.90;;;;;;5065321;28;20474;-71
2021/07/29 01:57:19;;;;;;;3.50;1.97;;;16.80;99.90;;;;;;5095862;28;20500;-73
2021/07/29 01:59:47;;;;;;;2.20;2.00;;;16.80;99.90;;;;;;5072968;28;20523;-74
2021/07/29 02:02:14;;;;;;;2.03;1.60;;;16.90;99.90;;;;;;5078786;28;20462;-71
2021/07/29 02:04:41;;;;;;;4.13;2.17;;;16.80;99.90;;;;;;5071006;28;20553;-71
2021/07/29 02:07:08;;;;;;;5.20;2.87;;;16.90;99.90;;;;;;5074082;28;20463;-72
2021/07/29 02:09:35;;;;;;;2.77;2.00;;;16.70;99.90;;;;;;5077035;28;20450;-71
2021/07/29 02:12:03;;;;;;;4.77;2.20;;;16.80;99.90;;;;;;5074149;28;20445;-71
2021/07/29 02:14:31;;;;;;;6.17;2.60;;;16.70;99.90;;;;;;5073928;28;20486;-71
2021/07/29 02:16:57;;;;;;;2.80;1.93;;;16.70;99.90;;;;;;5068563;28;20600;-72
2021/07/29 02:19:24;;;;;;;2.33;1.40;;;16.70;99.90;;;;;;5073110;28;20576;-71
2021/07/29 02:21:51;;;;;;;6.20;2.93;;;16.70;99.90;;;;;;5068492;28;20545;-72
2021/07/29 02:24:18;;;;;;;4.00;2.03;;;16.80;99.90;;;;;;5070311;28;20481;-72
2021/07/29 02:26:45;;;;;;;2.83;1.80;;;16.80;99.90;;;;;;5070644;28;20458;-74
2021/07/29 02:29:14;;;;;;;4.80;2.50;;;16.90;99.90;;;;;;5068368;28;20545;-72
2021/07/29 02:31:41;;;;;;;3.27;1.97;;;16.80;99.90;;;;;;5073680;28;20478;-72
2021/07/29 02:34:08;;;;;;;4.13;2.40;;;16.80;99.90;;;;;;5067745;28;20485;-73
2021/07/29 02:36:34;;;;;;;5.77;2.60;;;16.80;99.90;;;;;;5072444;28;20536;-72
2021/07/29 02:39:01;;;;;;;2.60;1.87;;;16.60;99.90;;;;;;5071906;28;20537;-76
2021/07/29 02:41:29;;;;;;;2.13;1.70;;;16.60;99.90;;;;;;5094160;28;20453;-76
2021/07/29 02:43:56;;;;;;;3.00;1.77;;;16.60;99.90;;;;;;5075617;28;20501;-74
2021/07/29 02:46:24;;;;;;;2.10;1.50;;;16.70;99.90;;;;;;5069761;28;20454;-74
2021/07/29 02:48:51;;;;;;;1.70;1.40;;;16.60;99.90;;;;;;5076259;28;20924;-71
2021/07/29 02:51:18;;;;;;;3.57;1.77;;;16.60;99.90;;;;;;5079499;28;20532;-73
2021/07/29 02:53:45;;;;;;;5.30;3.00;;;16.50;99.90;;;;;;5076122;28;20572;-72
2021/07/29 02:56:11;;;;;;;1.83;1.67;;;16.50;99.90;;;;;;5079286;28;20535;-71
2021/07/29 02:58:38;;;;;;;3.17;1.53;;;16.50;99.90;;;;;;5073834;28;20484;-75
2021/07/29 03:01:06;;;;;;;2.30;2.10;;;16.40;99.90;;;;;;5074468;28;20459;-70
2021/07/29 03:03:34;;;;;;;2.47;1.70;;;16.40;99.90;;;;;;5078138;28;20898;-72
2021/07/29 03:06:01;;;;;;;2.90;2.00;;;16.50;99.90;;;;;;5073792;28;20884;-72
2021/07/29 03:08:28;;;;;;;3.80;2.30;;;16.50;99.90;;;;;;5075276;28;20518;-70
2021/07/29 03:10:58;;;;;;;3.10;2.50;;;16.50;99.90;;;;;;5067990;28;20442;-72
2021/07/29 03:13:25;;;;;;;3.13;1.90;;;16.40;99.90;;;;;;5079776;28;20523;-73
2021/07/29 03:15:52;;;;;;;4.00;2.60;;;16.40;99.90;;;;;;5073257;28;20472;-70
2021/07/29 03:18:19;;;;;;;1.90;1.70;;;16.40;99.90;;;;;;5080909;28;20452;-75
2021/07/29 03:20:48;;;;;;;3.33;2.23;;;16.50;99.90;;;;;;5078860;28;20457;-71
2021/07/29 03:23:15;;;;;;;5.10;2.10;;;16.60;99.90;;;;;;5080967;28;20540;-72
2021/07/29 03:25:42;;;;;;;1.93;1.60;;;16.50;99.90;;;;;;5091242;28;20460;-71
2021/07/29 03:28:09;;;;;;;3.33;2.00;;;16.40;99.90;;;;;;5073339;28;20574;-74
2021/07/29 03:30:36;;;;;;;2.53;1.73;;;16.40;99.90;;;;;;5065535;28;20549;-72
2021/07/29 03:33:05;;;;;;;1.40;1.30;;;16.40;99.90;;;;;;5071610;28;20471;-70
2021/07/29 03:35:32;;;;;;;3.33;1.90;;;16.30;99.90;;;;;;5075004;28;20545;-72
2021/07/29 03:38:00;;;;;;;5.00;2.13;;;16.20;99.90;;;;;;5067617;28;20887;-71
2021/07/29 03:40:27;;;;;;;3.27;2.00;;;16.10;99.90;;;;;;5077567;28;20489;-72
2021/07/29 03:42:54;;;;;;;3.00;2.37;;;16.10;99.90;;;;;;5073527;28;20477;-71
2021/07/29 03:45:21;;;;;;;4.97;3.00;;;16.10;99.90;;;;;;5073098;28;20490;-71
2021/07/29 03:47:48;;;;;;;5.03;2.90;;;16.20;99.90;;;;;;5076340;28;20477;-73
2021/07/29 03:50:15;;;;;;;5.43;2.20;;;16.20;99.90;;;;;;5073249;28;20442;-71
2021/07/29 03:52:42;;;;;;;2.07;1.60;;;16.20;99.90;;;;;;5073090;28;20450;-72
2021/07/29 03:55:10;;;;;;;2.40;2.20;;;16.20;99.90;;;;;;5087973;28;21047;-75
2021/07/29 03:57:37;;;;;;;8.27;2.07;;;16.20;99.90;;;;;;5099006;28;20426;-75
2021/07/29 04:00:06;;;;;;;3.83;2.47;;;16.30;99.90;;;;;;5095838;28;20432;-77
2021/07/29 04:02:34;;;;;;;3.37;2.63;;;16.20;99.90;;;;;;5094074;28;20458;-75
2021/07/29 04:05:02;;;;;;;2.70;1.90;;;16.20;99.90;;;;;;5094785;28;20506;-74
2021/07/29 04:07:29;;;;;;;3.47;2.00;;;16.10;99.90;;;;;;5094310;28;20514;-75
2021/07/29 04:09:56;;;;;;;3.60;2.80;;;16.20;99.90;;;;;;5099175;28;20478;-73
2021/07/29 04:12:24;;;;;;;2.03;1.77;;;16.20;99.90;;;;;;5092971;28;20481;-74
2021/07/29 04:14:51;;;;;;;3.10;2.17;;;16.20;99.90;;;;;;5103159;28;20482;-72
2021/07/29 04:17:18;;;;;;;15.87;3.17;;;16.30;99.90;;;;;;5092384;28;20478;-72
2021/07/29 04:19:46;;;;;;;2.50;1.97;;;16.30;99.90;;;;;;5096082;28;20490;-73
2021/07/29 04:22:13;;;;;;;3.67;2.70;;;16.30;99.90;;;;;;5102891;28;20437;-74
2021/07/29 04:24:41;;;;;;;6.03;2.20;;;16.30;99.90;;;;;;5098419;28;20457;-74
2021/07/29 04:27:08;;;;;;;3.10;2.03;;;16.30;99.90;;;;;;5085256;28;20581;-73
2021/07/29 04:29:36;;;;;;;4.07;1.83;;;16.40;99.90;;;;;;5086089;28;20481;-75
2021/07/29 04:32:05;;;;;;;3.83;2.13;;;16.40;99.90;;;;;;5077660;28;20522;-77
2021/07/29 04:34:33;;;;;;;3.83;2.17;;;16.50;99.90;;;;;;5069365;28;20496;-70
2021/07/29 04:37:00;;;;;;;3.73;2.37;;;16.50;99.90;;;;;;5075429;28;20438;-70
2021/07/29 04:39:29;;;;;;;5.53;2.27;;;16.60;99.90;;;;;;5079493;28;20556;-72
2021/07/29 04:41:56;;;;;;;4.00;2.40;;;16.60;99.90;;;;;;5076490;28;20462;-72
2021/07/29 04:44:23;;;;;;;2.77;2.07;;;16.60;99.90;;;;;;5075128;28;20493;-73
2021/07/29 04:46:51;;;;;;;2.23;1.93;;;16.70;99.90;;;;;;5076236;28;20472;-71
2021/07/29 04:49:20;;;;;;;5.10;2.43;;;16.70;99.90;;;;;;5078355;28;20644;-71
2021/07/29 04:51:48;;;;;;;3.20;2.30;;;16.70;99.90;;;;;;5086772;28;20453;-74
2021/07/29 04:54:15;;;;;;;3.17;2.87;;;16.80;99.90;;;;;;5102529;28;20484;-72
2021/07/29 04:56:42;;;;;;;3.00;2.30;;;16.80;99.90;;;;;;5087526;28;20549;-73
2021/07/29 04:59:09;;;;;;;4.40;1.97;;;16.80;99.90;;;;;;5078941;28;20918;-72
2021/07/29 05:01:39;;;;;;;2.80;2.23;;;16.80;99.90;;;;;;5089414;28;21016;-72
2021/07/29 05:04:07;;;;;;;6.40;2.47;;;16.90;99.90;;;;;;5081296;28;20494;-70
2021/07/29 05:06:35;;;;;;;6.13;2.07;;;16.80;99.90;;;;;;5078717;28;20862;-72
2021/07/29 05:09:02;;;;;;;3.33;1.90;;;16.70;99.90;;;;;;5078499;28;20441;-71
2021/07/29 05:11:29;;;;;;;3.00;1.70;;;16.80;99.90;;;;;;5078502;28;20462;-72
2021/07/29 05:13:56;;;;;;;3.73;2.20;;;17.00;99.90;;;;;;5074222;28;20653;-72
2021/07/29 05:16:23;;;;;;;2.73;1.93;;;17.10;99.90;;;;;;5080057;28;20458;-72
2021/07/29 05:18:50;;;;;;;4.77;3.43;;;17.30;99.90;;;;;;5084577;28;20942;-73
2021/07/29 05:21:18;;;;;;;2.53;2.07;;;17.30;99.90;;;;;;5084851;28;20473;-71
2021/07/29 05:23:45;;;;;;;3.83;2.03;;;17.40;99.90;;;;;;5084464;28;20501;-72
2021/07/29 05:26:16;;;;;;;2.93;2.13;;;17.30;99.90;;;;;;5075175;28;20454;-74
2021/07/29 05:28:44;;;;;;;4.63;2.47;;;17.30;99.90;;;;;;5084315;28;21007;-71
2021/07/29 05:31:11;;;;;;;2.87;1.60;;;17.40;99.90;;;;;;5077547;28;20454;-72
2021/07/29 05:33:39;;;;;;;2.23;1.50;;;17.40;99.90;;;;;;5078838;28;21124;-74
2021/07/29 05:36:06;;;;;;;4.30;2.50;;;17.20;99.90;;;;;;5077655;28;20478;-72
2021/07/29 05:38:35;;;;;;;6.10;1.87;;;17.30;99.90;;;;;;5087012;28;20507;-70
2021/07/29 05:41:05;;;;;;;2.80;2.00;;;17.40;99.90;;;;;;5075116;28;21113;-72
2021/07/29 05:43:34;;;;;;;1.80;1.30;;;17.30;99.90;;;;;;5080784;28;20567;-71
2021/07/29 05:46:01;;;;;;;3.63;1.87;;;17.30;99.90;;;;;;5082327;28;20473;-71
2021/07/29 05:48:28;;;;;;;5.80;2.60;;;17.70;99.90;;;;;;5083255;28;20549;-71
2021/07/29 05:50:56;;;;;;;3.90;2.23;;;18.00;99.90;;;;;;5075932;28;20859;-71
2021/07/29 05:53:25;;;;;;;3.93;2.10;;;18.20;99.90;;;;;;5075668;28;20482;-73
2021/07/29 05:55:54;;;;;;;4.27;1.77;;;18.20;99.90;;;;;;5081180;28;20476;-71
2021/07/29 05:58:21;;;;;;;5.80;1.90;;;18.20;99.90;;;;;;5084204;28;20472;-70
2021/07/29 06:00:49;;;;;;;3.80;1.60;;;18.30;99.90;;;;;;5082793;28;20510;-70
2021/07/29 06:03:16;;;;;;;13.83;2.73;;;18.20;99.90;;;;;;5073947;28;20562;-75
2021/07/29 06:05:43;;;;;;;2.93;2.10;;;18.50;99.90;;;;;;5082249;28;20538;-71
2021/07/29 06:08:10;;;;;;;2.60;2.00;;;18.90;99.90;;;;;;5079261;28;20451;-72
2021/07/29 06:10:37;;;;;;;9.73;2.23;;;19.20;99.90;;;;;;5080646;28;20474;-70
2021/07/29 06:13:06;;;;;;;5.47;1.70;;;19.40;99.90;;;;;;5072879;28;20459;-73
2021/07/29 06:15:33;;;;;;;1.83;1.50;;;19.60;99.90;;;;;;5086352;28;20556;-70
2021/07/29 06:18:00;;;;;;;1.80;1.70;;;19.90;99.90;;;;;;5083789;28;20545;-71
2021/07/29 06:20:28;;;;;;;3.50;1.73;;;20.40;99.90;;;;;;5078352;28;20474;-74
2021/07/29 06:22:55;;;;;;;3.60;1.60;;;20.40;99.90;;;;;;5069879;28;20468;-71
2021/07/29 06:25:23;;;;;;;3.27;1.80;;;20.10;99.90;;;;;;5079788;28;20487;-72
2021/07/29 06:27:50;;;;;;;1.83;1.70;;;19.70;99.90;;;;;;5081950;28;20465;-74
2021/07/29 06:30:18;;;;;;;2.70;1.63;;;19.60;99.90;;;;;;5079773;28;20474;-71
2021/07/29 06:32:45;;;;;;;1.77;1.10;;;19.60;99.90;;;;;;5077778;28;20498;-70
2021/07/29 06:35:13;;;;;;;3.80;1.83;;;19.90;99.90;;;;;;5077034;28;20479;-74
2021/07/29 06:37:40;;;;;;;2.37;1.20;;;20.10;99.90;;;;;;5080261;28;20512;-72
2021/07/29 06:40:08;;;;;;;3.90;2.00;;;20.60;99.90;;;;;;5077062;28;20506;-72
2021/07/29 06:42:35;;;;;;;1.80;1.30;;;20.40;99.90;;;;;;5075597;28;20825;-71
2021/07/29 06:45:03;;;;;;;1.70;1.23;;;20.20;99.90;;;;;;5077035;28;20553;-70
2021/07/29 06:47:32;;;;;;;2.93;1.70;;;20.30;99.90;;;;;;5072757;28;20442;-71
2021/07/29 06:49:59;;;;;;;1.60;1.23;;;20.60;99.90;;;;;;5076895;28;20458;-71
2021/07/29 06:52:27;;;;;;;3.87;1.87;;;20.80;99.90;;;;;;5080761;28;20454;-70
2021/07/29 06:54:54;;;;;;;4.90;2.37;;;20.80;99.90;;;;;;5073320;28;20549;-71
2021/07/29 06:57:21;;;;;;;2.70;1.10;;;21.10;99.90;;;;;;5080020;28;20773;-70
2021/07/29 06:59:48;;;;;;;6.03;1.80;;;21.20;99.90;;;;;;5074472;28;20485;-73
2021/07/29 07:02:15;;;;;;;5.90;1.50;;;20.90;99.90;;;;;;5082561;28;20537;-71
2021/07/29 07:04:43;;;;;;;3.17;1.40;;;20.80;99.90;;;;;;5083257;28;20469;-74
2021/07/29 07:07:15;;;;;;;2.80;1.10;;;21.10;99.90;;;;;;5081578;28;21016;-72
2021/07/29 07:09:42;;;;;;;3.83;1.67;;;21.90;99.90;;;;;;5077322;28;20446;-72
2021/07/29 07:12:09;;;;;;;8.37;1.50;;;22.00;99.90;;;;;;5081431;28;20550;-73
2021/07/29 07:14:36;;;;;;;7.90;1.83;;;21.70;99.90;;;;;;5082028;28;20482;-72
2021/07/29 07:17:05;;;;;;;2.17;1.90;;;21.80;99.90;;;;;;5080937;28;20590;-71
2021/07/29 07:19:32;;;;;;;3.10;2.00;;;22.10;99.90;;;;;;5082706;28;20441;-71
2021/07/29 07:22:01;;;;;;;5.23;1.60;;;22.10;99.90;;;;;;5084491;28;20631;-71
2021/07/29 07:24:29;;;;;;;2.60;1.40;;;21.80;99.90;;;;;;5078746;28;20874;-72
2021/07/29 07:26:55;;;;;;;2.00;1.60;;;22.60;99.90;;;;;;5074659;28;20478;-71
2021/07/29 07:29:23;;;;;;;5.57;1.40;;;22.70;99.90;;;;;;5076064;28;20542;-70
2021/07/29 07:31:49;;;;;;;4.23;1.60;;;23.10;99.90;;;;;;5076493;28;20482;-71
2021/07/29 07:34:16;;;;;;;2.83;1.43;;;23.00;99.90;;;;;;5073017;28;20569;-71
2021/07/29 07:36:43;;;;;;;1.57;1.07;;;23.00;99.90;;;;;;5084225;28;20525;-70
2021/07/29 07:39:12;;;;;;;3.60;1.90;;;22.90;99.90;;;;;;5074584;28;20455;-73
2021/07/29 07:41:39;;;;;;;5.57;2.20;;;22.00;99.90;;;;;;5077857;28;20488;-71
2021/07/29 07:44:06;;;;;;;3.60;1.47;;;21.40;99.90;;;;;;5071027;28;20547;-71
2021/07/29 07:46:33;;;;;;;4.17;1.97;;;20.60;99.90;;;;;;5084108;28;20861;-70
2021/07/29 07:48:59;;;;;;;2.40;1.70;;;20.30;99.90;;;;;;5073101;28;20554;-71
2021/07/29 07:51:28;;;;;;;1.50;1.20;;;20.10;99.90;;;;;;5077750;28;20818;-73
2021/07/29 07:53:55;;;;;;;9.23;1.90;;;20.10;99.90;;;;;;5077536;28;20483;-72
2021/07/29 07:56:23;;;;;;;2.10;1.90;;;20.00;99.90;;;;;;5072479;28;20478;-71
2021/07/29 07:58:50;;;;;;;5.07;1.67;;;20.10;99.90;;;;;;5080114;28;20525;-71
2021/07/29 08:01:17;;;;;;;4.10;3.20;;;20.40;99.90;;;;;;5084187;28;21042;-71
2021/07/29 08:03:44;;;;;;;2.60;2.00;;;20.70;99.90;;;;;;5072814;28;21023;-71
2021/07/29 08:06:11;;;;;;;2.10;1.20;;;21.10;99.90;;;;;;5082900;28;20523;-74
2021/07/29 08:08:39;;;;;;;3.40;2.90;;;21.90;99.90;;;;;;5075416;28;20445;-73
2021/07/29 08:11:05;;;;;;;3.97;1.80;;;22.20;99.90;;;;;;5076063;28;20474;-71
2021/07/29 08:13:34;;;;;;;3.10;1.60;;;23.00;99.90;;;;;;5074793;28;20474;-72
2021/07/29 08:16:01;;;;;;;4.23;1.50;;;23.50;99.90;;;;;;5077971;28;20542;-71
2021/07/29 08:18:28;;;;;;;8.10;1.70;;;23.30;99.90;;;;;;5079138;28;20910;-71
2021/07/29 08:20:55;;;;;;;4.20;2.13;;;23.70;99.90;;;;;;5070125;28;20547;-73
2021/07/29 08:23:22;;;;;;;1.83;1.53;;;24.10;99.90;;;;;;5074328;28;20518;-71
2021/07/29 08:25:49;;;;;;;4.13;1.70;;;24.30;99.90;;;;;;5070626;28;20446;-70
2021/07/29 08:28:16;;;;;;;4.17;1.80;;;23.30;99.90;;;;;;5087409;28;20537;-73
2021/07/29 08:30:44;;;;;;;3.50;2.37;;;22.40;99.90;;;;;;5075448;28;20438;-72
2021/07/29 08:33:12;;;;;;;2.97;1.43;;;22.70;99.90;;;;;;5078728;28;20545;-69
2021/07/29 08:35:40;;;;;;;1.40;1.27;;;23.70;99.90;;;;;;5074461;28;20458;-69
2021/07/29 08:38:07;;;;;;;4.57;1.57;;;24.00;99.90;;;;;;5084452;28;20458;-70
2021/07/29 08:40:34;;;;;;;2.20;1.60;;;24.00;99.90;;;;;;5081374;28;21065;-71
2021/07/29 08:43:03;;;;;;;2.60;1.30;;;24.20;99.90;;;;;;5083829;28;20534;-71
2021/07/29 08:45:31;;;;;;;4.50;1.83;;;23.90;99.90;;;;;;5078357;28;20873;-74
2021/07/29 08:48:04;;;;;;;2.13;1.83;;;23.30;99.90;;;;;;5082696;28;20495;-70
2021/07/29 08:50:30;;;;;;;1.67;1.40;;;23.10;99.90;;;;;;5081517;28;20439;-73
2021/07/29 08:52:58;;;;;;;7.60;1.67;;;22.70;99.90;;;;;;5085722;28;21000;-72
2021/07/29 08:55:25;;;;;;;1.70;1.50;;;23.60;99.90;;;;;;5078480;28;20873;-73
2021/07/29 08:57:51;;;;;;;3.10;1.43;;;24.50;99.90;;;;;;5083949;28;20493;-71
2021/07/29 09:00:19;;;;;;;8.90;2.20;;;24.30;99.90;;;;;;5084658;28;20461;-74
2021/07/29 09:02:46;;;;;;;2.83;2.43;;;24.10;99.90;;;;;;5081882;28;20462;-73
2021/07/29 09:05:17;;;;;;;4.83;1.97;;;24.10;99.90;;;;;;5083259;28;20886;-72
2021/07/29 09:07:45;;;;;;;2.23;1.67;;;23.60;99.90;;;;;;5088148;28;20957;-73
2021/07/29 09:10:23;;;;;;;2.50;1.60;;;23.60;99.90;;;;;;5085286;28;20483;-72
2021/07/29 09:13:08;;;;;;;3.73;1.63;;;22.90;99.90;;;;;;5083029;28;20541;-70
2021/07/29 09:15:35;;;;;;;3.03;1.80;;;23.00;99.90;;;;;;5085709;28;20457;-72
2021/07/29 09:18:02;;;;;;;3.10;2.17;;;23.30;99.90;;;;;;5086391;28;20446;-71
2021/07/29 09:20:30;;;;;;;6.00;2.03;;;23.30;99.90;;;;;;5085207;28;20481;-70
2021/07/29 09:23:12;;;;;;;2.10;1.87;;;23.60;99.90;;;;;;5086608;28;20493;-72
2021/07/29 09:25:39;;;;;;;2.90;1.83;;;23.90;99.90;;;;;;5081176;28;20541;-71
2021/07/29 09:28:07;;;;;;;3.30;1.60;;;24.20;99.90;;;;;;5086945;28;20457;-70
2021/07/29 09:30:35;;;;;;;2.93;1.57;;;23.20;99.90;;;;;;5080541;28;20457;-70
2021/07/29 09:33:04;;;;;;;2.63;1.70;;;22.70;99.90;;;;;;5087800;28;20457;-70
2021/07/29 09:35:38;;;;;;;3.60;1.80;;;22.40;99.90;;;;;;5086535;28;20453;-73
2021/07/29 09:38:07;;;;;;;7.47;1.70;;;22.30;99.90;;;;;;5085049;28;20529;-71
2021/07/29 09:40:45;;;;;;;4.90;1.70;;;22.30;99.90;;;;;;5085500;28;20499;-71
2021/07/29 09:43:14;;;;;;;4.00;2.37;;;23.90;99.90;;;;;;5083583;28;20485;-72
2021/07/29 09:45:42;;;;;;;2.63;1.57;;;25.20;99.90;;;;;;5088369;28;20515;-71
2021/07/29 09:48:10;;;;;;;3.97;1.90;;;25.30;99.90;;;;;;5083299;28;20511;-71
2021/07/29 09:50:40;;;;;;;2.50;1.60;;;24.80;99.90;;;;;;5081806;28;20450;-71
2021/07/29 09:53:08;;;;;;;2.50;1.77;;;25.10;99.90;;;;;;5083529;28;20539;-71
2021/07/29 09:55:35;;;;;;;2.80;1.80;;;25.40;99.90;;;;;;5087754;28;20511;-72
2021/07/29 09:58:02;;;;;;;4.00;1.83;;;24.70;99.90;;;;;;5083286;28;20541;-71
2021/07/29 10:00:29;;;;;;;3.70;2.10;;;23.60;99.90;;;;;;5081116;28;20873;-71
2021/07/29 10:02:57;;;;;;;5.37;2.20;;;23.40;99.90;;;;;;5078403;28;21008;-71
2021/07/29 10:05:29;;;;;;;3.00;1.80;;;23.20;99.90;;;;;;5083770;28;20534;-72
2021/07/29 10:08:01;;;;;;;1.57;1.20;;;24.00;99.90;;;;;;5088637;28;20482;-73
2021/07/29 10:10:30;;;;;;;3.20;1.50;;;24.50;99.90;;;;;;5089110;28;20521;-74
2021/07/29 10:12:57;;;;;;;2.33;2.13;;;25.70;99.90;;;;;;5078620;28;20525;-73
2021/07/29 10:15:41;;;;;;;2.27;1.40;;;25.50;99.90;;;;;;5081732;28;20453;-74
2021/07/29 10:18:09;;;;;;;2.80;1.63;;;25.80;99.90;;;;;;5083188;28;20875;-71
2021/07/29 10:20:37;;;;;;;8.80;2.93;;;24.40;99.90;;;;;;5077970;28;21047;-75
2021/07/29 10:23:51;;;;;;;2.40;2.20;;;24.40;99.90;;;;;;5079587;28;20457;-72
2021/07/29 10:26:18;;;;;;;1.97;1.40;;;24.10;99.90;;;;;;5083377;28;20973;-71
2021/07/29 10:28:45;;;;;;;3.07;1.60;;;23.70;99.90;;;;;;5087793;28;20455;-69
2021/07/29 10:31:14;;;;;;;3.80;1.80;;;23.20;99.90;;;;;;5083193;28;20478;-71
2021/07/29 10:33:42;;;;;;;3.00;1.73;;;23.00;99.90;;;;;;5077880;28;20585;-72
2021/07/29 10:36:34;;;;;;;2.80;1.40;;;24.00;99.90;;;;;;5083961;28;20512;-74
2021/07/29 10:39:06;;;;;;;5.70;2.10;;;24.30;99.90;;;;;;5083741;28;20497;-74
2021/07/29 10:42:06;;;;;;;2.33;1.20;;;23.90;99.90;;;;;;5082363;28;20485;-74
2021/07/29 10:44:57;;;;;;;2.27;1.20;;;23.10;99.90;;;;;;5025551;28;20571;-71
2021/07/29 10:47:45;;;;;;;4.03;2.07;;;23.90;99.90;;;;;;5084318;28;20457;-72
2021/07/29 10:50:16;;;;;;;4.20;1.70;;;25.10;99.90;;;;;;5080854;28;20791;-72
2021/07/29 10:53:01;;;;;;;3.53;1.67;;;26.10;97.80;;;;;;5083322;28;20438;-72
2021/07/29 10:55:31;;;;;;;9.43;2.10;;;26.40;96.50;;;;;;5080802;28;20445;-74
2021/07/29 10:58:10;;;;;;;7.13;2.03;;;26.20;98.00;;;;;;5093279;28;20452;-74
2021/07/29 11:00:37;;;;;;;2.90;1.53;;;26.00;98.30;;;;;;5080377;28;20522;-72
2021/07/29 11:03:19;;;;;;;2.07;1.80;;;25.00;97.00;;;;;;5082478;28;20461;-72
2021/07/29 11:05:52;;;;;;;9.20;2.33;;;24.40;99.20;;;;;;5085052;28;20506;-74
2021/07/29 11:08:27;;;;;;;7.33;2.37;;;23.90;98.70;;;;;;5085407;28;21048;-73
2021/07/29 11:11:00;;;;;;;3.30;1.93;;;23.60;99.30;;;;;;5087736;28;20449;-72
2021/07/29 11:13:28;;;;;;;4.87;1.73;;;23.10;99.90;;;;;;5079597;28;20527;-71
2021/07/29 11:15:56;;;;;;;5.57;1.70;;;23.20;99.90;;;;;;5081625;28;20482;-71
2021/07/29 11:18:23;;;;;;;3.20;2.03;;;24.10;99.90;;;;;;5084214;28;20457;-72
2021/07/29 11:20:50;;;;;;;6.07;2.03;;;25.60;98.80;;;;;;5082790;28;20460;-72
2021/07/29 11:23:33;;;;;;;2.03;1.77;;;27.00;97.90;;;;;;5080729;28;20477;-71
2021/07/29 11:26:03;;;;;;;2.63;1.90;;;28.00;95.20;;;;;;5088786;28;20855;-71
2021/07/29 11:28:30;;;;;;;3.80;1.93;;;28.20;93.60;;;;;;5087445;28;20624;-71
2021/07/29 11:30:58;;;;;;;3.40;1.93;;;28.20;91.50;;;;;;5080087;28;20475;-74
2021/07/29 11:33:26;;;;;;;3.20;2.13;;;28.10;93.70;;;;;;5079587;28;20530;-73
2021/07/29 11:35:55;;;;;;;2.20;1.37;;;29.00;92.80;;;;;;5074149;28;20557;-70
2021/07/29 11:38:24;;;;;;;4.57;1.60;;;28.90;84.60;;;;;;5083883;28;20504;-71
2021/07/29 11:41:01;;;;;;;5.80;1.30;;;28.00;86.40;;;;;;5085266;28;20524;-72
2021/07/29 11:43:30;;;;;;;3.10;1.47;;;27.50;85.80;;;;;;5093934;28;20481;-71
2021/07/29 11:46:08;;;;;;;3.10;1.40;;;27.00;88.50;;;;;;5080375;28;20536;-72
2021/07/29 11:48:35;;;;;;;2.80;1.60;;;27.50;90.70;;;;;;5083288;28;20947;-73
2021/07/29 11:51:03;;;;;;;7.13;2.17;;;27.90;87.10;;;;;;5079690;28;20533;-73
2021/07/29 11:53:40;;;;;;;2.03;1.57;;;27.90;90.20;;;;;;5077472;28;20562;-71
2021/07/29 11:56:09;;;;;;;2.87;1.60;;;28.40;85.30;;;;;;5080009;28;20499;-72
2021/07/29 11:58:37;;;;;;;5.17;1.97;;;28.30;84.20;;;;;;5081758;28;20877;-73
2021/07/29 12:01:10;;;;;;;3.43;1.90;;;27.80;90.60;;;;;;5084391;28;20489;-72
2021/07/29 12:03:40;;;;;;;3.40;1.43;;;27.70;85.70;;;;;;5081705;28;20513;-72
2021/07/29 12:06:08;;;;;;;3.70;1.90;;;27.10;86.20;;;;;;5079387;28;20446;-72
2021/07/29 12:08:39;;;;;;;6.77;1.70;;;26.60;85.50;;;;;;5088942;28;20533;-71
2021/07/29 12:11:10;;;;;;;2.30;1.80;;;27.00;88.00;;;;;;5081886;28;20455;-73
2021/07/29 12:13:40;;;;;;;3.30;1.90;;;26.80;87.20;;;;;;5083325;28;20481;-71
2021/07/29 12:16:07;;;;;;;6.27;1.60;;;26.70;89.20;;;;;;5083401;28;20485;-71
2021/07/29 12:18:34;;;;;;;2.10;1.50;;;27.30;86.10;;;;;;5081416;28;20461;-71
2021/07/29 12:21:02;;;;;;;3.43;1.73;;;27.20;85.90;;;;;;5079736;28;20541;-71
2021/07/29 12:23:29;;;;;;;2.70;1.80;;;26.40;87.40;;;;;;5085435;28;20502;-71
2021/07/29 12:26:10;;;;;;;2.90;1.67;;;25.20;89.40;;;;;;5099503;28;20476;-73
2021/07/29 12:28:43;;;;;;;3.20;1.43;;;24.40;90.40;;;;;;5096376;28;20453;-73
2021/07/29 12:31:21;;;;;;;4.80;2.23;;;24.20;91.90;;;;;;5087565;28;20467;-73
2021/07/29 12:33:49;;;;;;;1.90;1.33;;;24.40;93.60;;;;;;5085894;28;20592;-75
2021/07/29 12:36:17;;;;;;;2.73;2.33;;;24.90;93.60;;;;;;5090588;28;20446;-73
2021/07/29 12:38:44;;;;;;;6.03;3.20;;;26.10;92.60;;;;;;5087198;28;20474;-71
2021/07/29 12:41:11;;;;;;;3.50;1.70;;;27.70;90.00;;;;;;5075682;28;20552;-72
2021/07/29 12:43:38;;;;;;;2.00;1.50;;;28.60;90.00;;;;;;5086719;28;20534;-71
2021/07/29 12:46:08;;;;;;;3.00;1.63;;;28.30;80.00;;;;;;5085021;28;20482;-73
2021/07/29 12:48:56;;;;;;;5.13;2.00;;;27.20;85.10;;;;;;5083163;28;20447;-70
2021/07/29 12:51:34;;;;;;;6.73;2.00;;;26.50;87.00;;;;;;5084130;28;20478;-71
2021/07/29 12:54:01;;;;;;;3.47;2.20;;;25.80;87.00;;;;;;5084695;28;20909;-75
2021/07/29 12:56:28;;;;;;;2.73;2.53;;;25.30;88.50;;;;;;5087668;28;20458;-71